Time;durP1;ratioP1;P1;durP2;ratioP2;P2;SDS_P1;SDS_P2;PMS_P1;PMS_P2;Temp;Humidity;BMP_temperature;BMP_pressure;BME280_temperature;BME280_humidity;BME280_pressure;Samples;Min_cycle;Max_cycle;Signal;HPM_P1;HPM_P2
2021/04/26 00:00:28;;;;;;;3.30;2.28;;;6.20;86.00;;;;;;5011296;28;20061;-71
2021/04/26 00:02:55;;;;;;;6.05;2.33;;;6.20;86.80;;;;;;5009681;28;20029;-70
2021/04/26 00:05:20;;;;;;;3.72;1.90;;;6.20;86.10;;;;;;5011207;28;20025;-69
2021/04/26 00:07:46;;;;;;;6.88;2.22;;;6.10;87.30;;;;;;5011202;28;20113;-70
2021/04/26 00:10:13;;;;;;;6.90;2.40;;;6.20;87.20;;;;;;5011277;28;20376;-71
2021/04/26 00:12:40;;;;;;;7.38;2.88;;;6.10;87.30;;;;;;5010691;28;20473;-70
2021/04/26 00:15:13;;;;;;;2.63;2.20;;;6.00;88.30;;;;;;5011008;28;20052;-71
2021/04/26 00:17:38;;;;;;;5.70;2.15;;;5.90;87.80;;;;;;5010618;28;20522;-71
2021/04/26 00:20:11;;;;;;;3.30;2.00;;;5.90;89.30;;;;;;5011280;28;20033;-70
2021/04/26 00:22:37;;;;;;;2.33;2.10;;;5.80;89.60;;;;;;5010444;28;20037;-69
2021/04/26 00:25:06;;;;;;;2.78;2.10;;;5.80;89.50;;;;;;5010903;28;20104;-70
2021/04/26 00:27:35;;;;;;;4.25;2.10;;;5.80;89.40;;;;;;5011042;28;20452;-69
2021/04/26 00:30:02;;;;;;;5.35;2.33;;;5.80;88.90;;;;;;5010974;28;20026;-71
2021/04/26 00:32:28;;;;;;;4.45;2.20;;;5.80;89.40;;;;;;5010582;28;20033;-71
2021/04/26 00:34:54;;;;;;;3.72;2.08;;;5.90;90.00;;;;;;5010197;28;20026;-69
2021/04/26 00:37:19;;;;;;;5.15;2.33;;;5.80;89.10;;;;;;5011047;28;20057;-71
2021/04/26 00:39:45;;;;;;;4.40;2.22;;;5.70;90.00;;;;;;5010889;28;20100;-71
2021/04/26 00:42:11;;;;;;;11.05;2.42;;;5.80;89.20;;;;;;5010982;28;20544;-69
2021/04/26 00:44:36;;;;;;;4.88;2.15;;;5.80;89.60;;;;;;5009998;28;20447;-69
2021/04/26 00:47:02;;;;;;;6.30;2.60;;;5.90;89.40;;;;;;5010566;28;20064;-70
2021/04/26 00:49:28;;;;;;;8.57;2.97;;;5.90;89.00;;;;;;5014554;28;20026;-72
2021/04/26 00:51:54;;;;;;;7.55;2.58;;;6.00;89.80;;;;;;5014292;28;20030;-69
2021/04/26 00:54:19;;;;;;;5.55;2.35;;;5.90;89.30;;;;;;5013486;28;20026;-69
2021/04/26 00:56:45;;;;;;;5.70;2.33;;;6.00;90.00;;;;;;5013906;28;20022;-70
2021/04/26 00:59:11;;;;;;;5.93;2.70;;;5.90;90.50;;;;;;5013944;28;20748;-70
2021/04/26 01:01:37;;;;;;;3.78;2.50;;;5.80;90.60;;;;;;5013791;28;20071;-70
2021/04/26 01:04:03;;;;;;;7.57;2.53;;;5.80;90.80;;;;;;5013490;28;20425;-69
2021/04/26 01:06:29;;;;;;;4.38;2.63;;;5.80;91.00;;;;;;5013831;28;20052;-71
2021/04/26 01:08:55;;;;;;;6.65;2.58;;;5.70;91.00;;;;;;5014037;28;20026;-70
2021/04/26 01:11:25;;;;;;;5.95;2.60;;;5.70;91.40;;;;;;5014063;28;20471;-71
2021/04/26 01:14:24;;;;;;;7.50;2.72;;;5.70;91.40;;;;;;5013409;28;20100;-71
2021/04/26 01:16:57;;;;;;;4.40;2.95;;;5.60;91.80;;;;;;5013487;28;20091;-70
2021/04/26 01:19:40;;;;;;;4.70;2.13;;;5.50;92.10;;;;;;5013957;28;20032;-70
2021/04/26 01:22:27;;;;;;;5.97;2.30;;;5.40;92.40;;;;;;5013771;28;20477;-70
2021/04/26 01:25:06;;;;;;;3.58;2.67;;;5.40;92.60;;;;;;5012881;28;20042;-69
2021/04/26 01:27:53;;;;;;;6.00;2.80;;;5.40;92.90;;;;;;5013635;28;20025;-71
2021/04/26 01:30:31;;;;;;;10.00;2.70;;;5.30;92.90;;;;;;5013517;28;20034;-71
2021/04/26 01:33:08;;;;;;;10.30;2.83;;;5.40;93.10;;;;;;5012626;28;20046;-69
2021/04/26 01:35:34;;;;;;;6.40;2.78;;;5.30;93.50;;;;;;5013321;28;20064;-69
2021/04/26 01:38:11;;;;;;;6.75;3.28;;;5.40;93.60;;;;;;5013589;28;20033;-70
2021/04/26 01:40:42;;;;;;;8.52;3.13;;;5.40;93.80;;;;;;5013478;28;20068;-70
2021/04/26 01:43:09;;;;;;;6.55;2.75;;;5.40;93.60;;;;;;5012600;28;20037;-70
2021/04/26 01:45:36;;;;;;;7.88;2.63;;;5.50;93.60;;;;;;5013235;28;20030;-68
2021/04/26 01:48:02;;;;;;;8.18;3.00;;;5.60;93.60;;;;;;5013000;28;20037;-70
2021/04/26 01:50:28;;;;;;;6.05;3.20;;;5.50;94.10;;;;;;5013250;28;20030;-69
2021/04/26 01:52:55;;;;;;;6.03;3.05;;;5.50;94.30;;;;;;5012559;28;20078;-70
2021/04/26 01:55:22;;;;;;;5.43;2.90;;;5.60;94.50;;;;;;5012759;28;20486;-72
2021/04/26 01:57:49;;;;;;;6.90;3.42;;;5.50;94.90;;;;;;5013178;28;20018;-69
2021/04/26 02:00:20;;;;;;;7.53;3.35;;;5.50;95.00;;;;;;4995481;28;20033;-71
2021/04/26 02:02:46;;;;;;;6.80;3.10;;;5.40;95.60;;;;;;5012148;28;20056;-71
2021/04/26 02:05:15;;;;;;;10.52;3.40;;;5.40;96.00;;;;;;5012709;28;20030;-69
2021/04/26 02:07:43;;;;;;;4.00;3.00;;;5.30;96.20;;;;;;5012831;28;20041;-70
2021/04/26 02:10:11;;;;;;;8.68;3.15;;;5.30;96.50;;;;;;5012987;28;20022;-69
2021/04/26 02:12:38;;;;;;;6.70;3.22;;;5.20;97.00;;;;;;5012213;28;20484;-68
2021/04/26 02:15:08;;;;;;;4.80;2.80;;;5.20;97.30;;;;;;4994775;28;20041;-70
2021/04/26 02:17:33;;;;;;;10.02;3.60;;;5.10;98.00;;;;;;5012409;28;20026;-70
2021/04/26 02:19:59;;;;;;;10.73;3.60;;;5.10;98.80;;;;;;4994944;28;20053;-69
2021/04/26 02:22:25;;;;;;;5.80;3.53;;;5.00;99.10;;;;;;5012507;28;20389;-70
2021/04/26 02:24:51;;;;;;;8.50;3.85;;;4.90;99.90;;;;;;5011703;28;20048;-70
2021/04/26 02:27:17;;;;;;;10.88;3.53;;;4.90;99.90;;;;;;5012320;28;20026;-71
2021/04/26 02:29:42;;;;;;;8.23;4.18;;;4.80;99.90;;;;;;5012584;28;20080;-70
2021/04/26 02:32:13;;;;;;;9.30;4.00;;;4.80;99.90;;;;;;5012214;28;20097;-70
2021/04/26 02:34:44;;;;;;;8.27;3.90;;;4.80;99.90;;;;;;5012049;28;20100;-69
2021/04/26 02:37:19;;;;;;;7.30;3.63;;;4.70;99.90;;;;;;5012392;28;20072;-69
2021/04/26 02:39:46;;;;;;;7.18;4.25;;;4.70;99.90;;;;;;5012269;28;20025;-68
2021/04/26 02:42:14;;;;;;;6.75;4.15;;;4.70;99.90;;;;;;5012298;28;20068;-69
2021/04/26 02:44:44;;;;;;;9.45;3.80;;;4.60;99.90;;;;;;5011485;28;20387;-71
2021/04/26 02:47:13;;;;;;;8.07;3.88;;;4.50;99.90;;;;;;5012631;28;20049;-72
2021/04/26 02:49:40;;;;;;;7.97;3.85;;;4.50;99.90;;;;;;5012998;28;20088;-71
2021/04/26 02:52:08;;;;;;;5.18;3.35;;;4.50;99.90;;;;;;5012348;28;20026;-70
2021/04/26 02:54:35;;;;;;;8.38;3.58;;;4.40;99.90;;;;;;5011429;28;20550;-70
2021/04/26 02:57:01;;;;;;;9.93;3.88;;;4.40;99.90;;;;;;5012099;28;20366;-70
2021/04/26 02:59:28;;;;;;;9.82;4.40;;;4.40;99.90;;;;;;5012034;28;20105;-71
2021/04/26 03:01:55;;;;;;;6.32;3.95;;;4.30;99.90;;;;;;5011486;28;20018;-70
2021/04/26 03:04:21;;;;;;;6.88;4.25;;;4.30;99.90;;;;;;5011098;28;20029;-70
2021/04/26 03:06:49;;;;;;;13.27;4.30;;;4.30;99.90;;;;;;5011796;28;20026;-70
2021/04/26 03:09:15;;;;;;;12.00;4.80;;;4.20;99.90;;;;;;5011798;28;20029;-71
2021/04/26 03:11:43;;;;;;;7.80;4.25;;;4.20;99.90;;;;;;5011538;28;20429;-71
2021/04/26 03:14:10;;;;;;;9.43;3.92;;;4.20;99.90;;;;;;5011245;28;20033;-71
2021/04/26 03:16:37;;;;;;;8.20;4.28;;;4.20;99.90;;;;;;5011781;28;20026;-69
2021/04/26 03:19:04;;;;;;;9.27;4.25;;;4.20;99.90;;;;;;5011680;28;20045;-69
2021/04/26 03:21:31;;;;;;;6.07;4.28;;;4.20;99.90;;;;;;5011956;28;20025;-70
2021/04/26 03:23:56;;;;;;;8.88;4.50;;;4.10;99.90;;;;;;5011141;28;20030;-68
2021/04/26 03:26:23;;;;;;;6.78;4.82;;;4.10;99.90;;;;;;5011825;28;20045;-71
2021/04/26 03:28:50;;;;;;;5.47;3.70;;;3.90;99.90;;;;;;5011715;28;20032;-69
2021/04/26 03:31:17;;;;;;;5.20;3.92;;;3.80;99.90;;;;;;5011941;28;20026;-70
2021/04/26 03:33:43;;;;;;;7.20;4.38;;;3.80;99.90;;;;;;5010965;28;20048;-69
2021/04/26 03:36:09;;;;;;;6.80;4.93;;;3.80;99.90;;;;;;4994143;28;20030;-69
2021/04/26 03:38:36;;;;;;;7.97;4.78;;;3.80;99.90;;;;;;5012002;28;20033;-71
2021/04/26 03:41:03;;;;;;;9.38;4.78;;;3.80;99.90;;;;;;5012031;28;20037;-71
2021/04/26 03:43:29;;;;;;;10.20;5.47;;;3.80;99.90;;;;;;5011049;28;20028;-70
2021/04/26 03:45:56;;;;;;;9.60;5.18;;;3.80;99.90;;;;;;5011497;28;20419;-69
2021/04/26 03:48:22;;;;;;;10.45;5.28;;;3.80;99.90;;;;;;5011485;28;20041;-69
2021/04/26 03:50:48;;;;;;;12.52;5.40;;;3.70;99.90;;;;;;5012021;28;20368;-71
2021/04/26 03:53:14;;;;;;;9.73;5.22;;;3.70;99.90;;;;;;5011182;28;20026;-71
2021/04/26 03:55:39;;;;;;;12.32;5.75;;;3.60;99.90;;;;;;5021987;22;20133;-70
2021/04/26 03:58:06;;;;;;;11.50;5.50;;;3.50;99.90;;;;;;4983953;28;20499;-69
2021/04/26 04:00:33;;;;;;;6.70;5.32;;;3.50;99.90;;;;;;4972800;28;20082;-70
2021/04/26 04:02:58;;;;;;;8.15;5.13;;;3.50;99.90;;;;;;4954716;28;20023;-70
2021/04/26 04:05:24;;;;;;;11.15;5.13;;;3.50;99.90;;;;;;4972625;28;20073;-69
2021/04/26 04:07:50;;;;;;;12.77;5.63;;;3.50;99.90;;;;;;4972561;28;20038;-70
2021/04/26 04:10:16;;;;;;;10.90;5.07;;;3.40;99.90;;;;;;4972558;28;20503;-68
2021/04/26 04:12:42;;;;;;;10.63;5.97;;;3.40;99.90;;;;;;4971869;28;20034;-69
2021/04/26 04:15:09;;;;;;;10.30;5.43;;;3.50;99.90;;;;;;4972976;28;20611;-69
2021/04/26 04:17:39;;;;;;;8.35;5.80;;;3.50;99.90;;;;;;4973411;28;20019;-69
2021/04/26 04:20:07;;;;;;;8.48;5.38;;;3.40;99.90;;;;;;4972681;28;20118;-69
2021/04/26 04:22:33;;;;;;;11.68;5.50;;;3.40;99.90;;;;;;4973559;28;20027;-69
2021/04/26 04:24:58;;;;;;;14.57;5.68;;;3.40;99.90;;;;;;4984213;28;20100;-68
2021/04/26 04:27:24;;;;;;;14.60;5.65;;;3.40;99.90;;;;;;4990928;28;20171;-69
2021/04/26 04:29:50;;;;;;;15.85;6.22;;;3.40;99.90;;;;;;4994244;28;20522;-70
2021/04/26 04:32:15;;;;;;;14.98;6.72;;;3.40;99.90;;;;;;4995083;28;20048;-70
2021/04/26 04:34:41;;;;;;;12.10;5.93;;;3.50;99.90;;;;;;5002002;28;20073;-70
2021/04/26 04:37:06;;;;;;;10.05;5.85;;;3.50;99.90;;;;;;5011749;28;20026;-70
2021/04/26 04:39:32;;;;;;;12.38;5.38;;;3.50;99.90;;;;;;4996926;28;20037;-68
2021/04/26 04:41:58;;;;;;;10.93;5.78;;;3.50;99.90;;;;;;4994983;28;20026;-68
2021/04/26 04:44:23;;;;;;;14.10;5.75;;;3.50;99.90;;;;;;4994237;28;20518;-68
2021/04/26 04:46:49;;;;;;;13.48;5.30;;;3.50;99.90;;;;;;4976989;28;20031;-70
2021/04/26 04:49:15;;;;;;;11.40;5.97;;;3.50;99.90;;;;;;4995092;28;20503;-69
2021/04/26 04:51:43;;;;;;;7.88;4.93;;;3.60;99.90;;;;;;4995225;28;20019;-69
2021/04/26 04:54:09;;;;;;;9.32;5.65;;;3.60;99.90;;;;;;4994337;28;20535;-70
2021/04/26 04:56:35;;;;;;;13.57;5.40;;;3.60;99.90;;;;;;4993633;28;20039;-69
2021/04/26 04:59:00;;;;;;;10.60;5.15;;;3.70;99.90;;;;;;4994773;28;20050;-70
2021/04/26 05:01:26;;;;;;;13.70;5.88;;;3.80;99.90;;;;;;4994604;28;20034;-69
2021/04/26 05:03:51;;;;;;;11.30;6.20;;;3.90;99.90;;;;;;4994141;28;20030;-69
2021/04/26 05:06:17;;;;;;;12.10;6.30;;;3.90;99.90;;;;;;4994338;28;20037;-69
2021/04/26 05:08:43;;;;;;;13.60;5.90;;;4.00;99.90;;;;;;4994769;28;20022;-69
2021/04/26 05:11:08;;;;;;;12.48;5.97;;;4.10;99.90;;;;;;4988395;28;20026;-69
2021/04/26 05:13:34;;;;;;;10.73;5.40;;;4.10;99.90;;;;;;4972656;28;20027;-69
2021/04/26 05:16:00;;;;;;;12.05;5.80;;;4.10;99.90;;;;;;5000299;28;20027;-68
2021/04/26 05:18:26;;;;;;;13.40;6.70;;;4.10;99.90;;;;;;4986777;28;20059;-69
2021/04/26 05:20:52;;;;;;;8.27;5.93;;;4.20;99.90;;;;;;5000941;28;20032;-69
2021/04/26 05:23:17;;;;;;;11.05;6.30;;;4.10;99.90;;;;;;4986513;28;20079;-69
2021/04/26 05:25:43;;;;;;;8.18;5.55;;;4.10;99.90;;;;;;4979942;28;20476;-68
2021/04/26 05:28:09;;;;;;;14.02;6.68;;;4.20;99.90;;;;;;4994109;28;20083;-68
2021/04/26 05:30:35;;;;;;;14.93;7.05;;;4.10;99.90;;;;;;4993887;28;20026;-68
2021/04/26 05:33:01;;;;;;;10.02;6.25;;;4.20;99.90;;;;;;4993295;28;20037;-69
2021/04/26 05:35:26;;;;;;;11.90;5.80;;;4.20;99.90;;;;;;4994677;28;20018;-68
2021/04/26 05:37:53;;;;;;;9.90;6.60;;;4.20;99.90;;;;;;4993655;28;20575;-68
2021/04/26 05:40:19;;;;;;;17.05;6.20;;;4.30;99.90;;;;;;4993836;28;20034;-70
2021/04/26 05:42:44;;;;;;;9.20;5.72;;;4.40;99.90;;;;;;4992957;28;20045;-68
2021/04/26 05:45:10;;;;;;;19.73;6.38;;;4.50;99.90;;;;;;4993618;28;20089;-68
2021/04/26 05:47:36;;;;;;;8.90;5.70;;;4.60;99.90;;;;;;4993592;28;20029;-68
2021/04/26 05:50:03;;;;;;;11.25;6.30;;;4.60;99.90;;;;;;4993097;28;20022;-68
2021/04/26 05:52:29;;;;;;;17.20;6.35;;;4.60;99.90;;;;;;4994071;28;20054;-70
2021/04/26 05:54:55;;;;;;;11.90;6.00;;;4.80;99.90;;;;;;4992978;28;20046;-70
2021/04/26 05:57:20;;;;;;;14.63;6.43;;;4.80;99.90;;;;;;4993107;28;20113;-69
2021/04/26 05:59:46;;;;;;;11.00;6.40;;;4.80;99.90;;;;;;4991526;28;20102;-69
2021/04/26 06:02:12;;;;;;;11.68;5.90;;;4.90;99.90;;;;;;4991379;28;20030;-69
2021/04/26 06:04:37;;;;;;;16.80;6.50;;;5.00;99.90;;;;;;4992651;28;20026;-69
2021/04/26 06:07:03;;;;;;;11.02;6.03;;;5.00;99.90;;;;;;4993097;28;20034;-69
2021/04/26 06:09:28;;;;;;;11.77;6.40;;;5.10;99.90;;;;;;4993502;28;20027;-69
2021/04/26 06:11:54;;;;;;;11.27;5.57;;;5.20;99.90;;;;;;4993316;28;20380;-70
2021/04/26 06:14:20;;;;;;;12.00;6.22;;;5.20;99.90;;;;;;4992475;28;20026;-69
2021/04/26 06:16:45;;;;;;;10.75;6.03;;;5.30;99.90;;;;;;4992535;28;20022;-69
2021/04/26 06:19:11;;;;;;;13.05;6.38;;;5.40;99.90;;;;;;4993333;28;20030;-71
2021/04/26 06:21:37;;;;;;;9.95;5.85;;;5.40;99.90;;;;;;4991908;28;20101;-69
2021/04/26 06:24:03;;;;;;;10.90;5.45;;;5.60;99.90;;;;;;4991602;28;20034;-69
2021/04/26 06:26:28;;;;;;;13.02;6.57;;;5.70;99.90;;;;;;4992554;28;20053;-69
2021/04/26 06:28:54;;;;;;;11.10;5.90;;;5.90;99.90;;;;;;4992579;28;20120;-69
2021/04/26 06:31:19;;;;;;;9.65;5.85;;;5.90;99.90;;;;;;4993137;28;20045;-69
2021/04/26 06:33:45;;;;;;;13.00;6.07;;;6.00;99.90;;;;;;4992561;28;20030;-69
2021/04/26 06:36:11;;;;;;;11.20;5.45;;;6.10;99.90;;;;;;4993137;28;20093;-71
2021/04/26 06:38:37;;;;;;;10.57;6.03;;;6.10;99.90;;;;;;4993046;28;20058;-70
2021/04/26 06:41:03;;;;;;;9.32;5.40;;;6.20;99.90;;;;;;4993418;28;20038;-70
2021/04/26 06:43:28;;;;;;;8.38;5.35;;;6.30;99.90;;;;;;4992638;28;20037;-70
2021/04/26 06:45:54;;;;;;;9.25;5.13;;;6.50;99.90;;;;;;4992611;28;20027;-69
2021/04/26 06:48:20;;;;;;;8.73;5.65;;;6.60;99.90;;;;;;4993004;28;20034;-69
2021/04/26 06:50:46;;;;;;;13.65;6.15;;;6.80;99.90;;;;;;4993401;28;20184;-70
2021/04/26 06:53:13;;;;;;;7.53;5.85;;;6.90;99.90;;;;;;4993467;28;20037;-70
2021/04/26 06:55:39;;;;;;;9.23;5.90;;;7.00;99.90;;;;;;4994131;28;20050;-72
2021/04/26 06:58:05;;;;;;;10.02;6.13;;;7.20;99.90;;;;;;4996527;28;20032;-70
2021/04/26 07:00:31;;;;;;;7.10;5.50;;;7.20;99.90;;;;;;4982042;28;20094;-70
2021/04/26 07:02:57;;;;;;;9.48;5.75;;;7.40;99.90;;;;;;5002505;28;20038;-71
2021/04/26 07:05:24;;;;;;;9.30;5.80;;;7.60;99.90;;;;;;5011190;28;20014;-70
2021/04/26 07:07:50;;;;;;;7.18;5.68;;;7.70;99.90;;;;;;5014963;28;20038;-71
2021/04/26 07:10:15;;;;;;;12.65;6.20;;;7.90;99.90;;;;;;5014612;28;20018;-72
2021/04/26 07:12:41;;;;;;;10.32;5.38;;;8.10;99.90;;;;;;5015403;28;20037;-71
2021/04/26 07:15:10;;;;;;;9.38;5.25;;;8.30;99.90;;;;;;5012715;28;20073;-70
2021/04/26 07:17:35;;;;;;;6.93;5.47;;;8.40;99.90;;;;;;5012423;28;20118;-72
2021/04/26 07:20:06;;;;;;;9.13;4.97;;;8.50;99.90;;;;;;4998914;28;20057;-70
2021/04/26 07:22:31;;;;;;;15.45;5.63;;;8.60;99.90;;;;;;4991968;28;20076;-71
2021/04/26 07:24:57;;;;;;;10.00;5.07;;;8.70;99.90;;;;;;4991814;28;20515;-70
2021/04/26 07:27:23;;;;;;;10.23;5.40;;;8.70;99.70;;;;;;4993107;28;20077;-68
2021/04/26 07:29:49;;;;;;;10.90;5.22;;;8.80;99.90;;;;;;4992896;28;20026;-69
2021/04/26 07:32:15;;;;;;;11.60;5.32;;;8.90;99.20;;;;;;4992493;28;20073;-70
2021/04/26 07:34:40;;;;;;;7.65;4.70;;;9.00;99.20;;;;;;4991502;28;20022;-70
2021/04/26 07:37:06;;;;;;;12.80;5.80;;;9.20;98.90;;;;;;4991940;28;20023;-70
2021/04/26 07:39:32;;;;;;;8.73;5.40;;;9.40;97.50;;;;;;4992915;28;20050;-69
2021/04/26 07:41:59;;;;;;;8.43;5.07;;;9.50;97.30;;;;;;4993435;28;20022;-69
2021/04/26 07:44:26;;;;;;;8.65;5.00;;;9.70;96.70;;;;;;4991837;28;20019;-70
2021/04/26 07:46:52;;;;;;;9.02;5.38;;;9.80;96.30;;;;;;4992270;28;20026;-69
2021/04/26 07:49:18;;;;;;;9.55;5.15;;;9.80;95.30;;;;;;4991128;28;20465;-70
2021/04/26 07:51:43;;;;;;;7.57;5.20;;;10.00;95.90;;;;;;4992001;28;20069;-69
2021/04/26 07:54:09;;;;;;;5.65;4.50;;;10.20;95.20;;;;;;4991554;28;20050;-70
2021/04/26 07:56:35;;;;;;;9.02;5.00;;;10.50;94.70;;;;;;4976899;28;20030;-70
2021/04/26 07:59:02;;;;;;;6.55;4.63;;;10.60;94.10;;;;;;4976707;28;20057;-69
2021/04/26 08:01:28;;;;;;;12.77;4.88;;;10.60;93.40;;;;;;4976322;28;20097;-72
2021/04/26 08:03:54;;;;;;;12.02;4.70;;;10.70;94.10;;;;;;4977707;28;20834;-69
2021/04/26 08:06:20;;;;;;;6.43;4.55;;;11.10;93.80;;;;;;4995297;28;20049;-70
2021/04/26 08:08:45;;;;;;;7.75;4.60;;;11.40;92.60;;;;;;4996054;28;20027;-70
2021/04/26 08:11:11;;;;;;;7.53;4.55;;;11.30;91.40;;;;;;4995636;28;20100;-70
2021/04/26 08:13:37;;;;;;;10.68;5.00;;;11.20;91.70;;;;;;4994564;28;20049;-70
2021/04/26 08:16:03;;;;;;;8.13;4.50;;;11.30;90.60;;;;;;4995602;28;20064;-70
2021/04/26 08:18:29;;;;;;;7.28;4.28;;;11.50;91.00;;;;;;4995773;28;20500;-71
2021/04/26 08:20:55;;;;;;;7.80;4.50;;;12.00;90.70;;;;;;4995016;28;20038;-70
2021/04/26 08:23:21;;;;;;;5.65;4.20;;;12.40;90.30;;;;;;4994923;28;20030;-70
2021/04/26 08:25:47;;;;;;;6.28;3.92;;;12.80;87.60;;;;;;4995131;28;20038;-70
2021/04/26 08:28:14;;;;;;;9.98;4.50;;;13.30;85.30;;;;;;4995778;28;20093;-71
2021/04/26 08:30:40;;;;;;;7.75;3.92;;;13.90;83.00;;;;;;4995391;28;20022;-70
2021/04/26 08:33:06;;;;;;;6.28;3.88;;;14.50;80.00;;;;;;4995175;28;20072;-70
2021/04/26 08:35:31;;;;;;;9.15;4.50;;;14.30;78.50;;;;;;4977352;28;20030;-70
2021/04/26 08:37:57;;;;;;;11.82;4.97;;;14.00;78.00;;;;;;4995311;28;20026;-69
2021/04/26 08:40:23;;;;;;;9.30;4.78;;;14.30;78.20;;;;;;4994926;28;20091;-71
2021/04/26 08:42:49;;;;;;;8.27;4.10;;;14.10;78.30;;;;;;4994605;28;20701;-70
2021/04/26 08:45:15;;;;;;;7.68;3.88;;;14.00;76.80;;;;;;4994820;28;20030;-71
2021/04/26 08:47:41;;;;;;;6.88;4.75;;;14.40;78.40;;;;;;4996349;28;20511;-70
2021/04/26 08:50:09;;;;;;;9.77;3.90;;;14.80;75.20;;;;;;4979279;28;20023;-71
2021/04/26 08:52:35;;;;;;;7.47;4.10;;;14.90;72.70;;;;;;4996131;28;20050;-71
2021/04/26 08:55:02;;;;;;;7.78;4.20;;;14.80;75.00;;;;;;4994936;28;20426;-70
2021/04/26 08:57:28;;;;;;;7.10;4.03;;;15.20;74.10;;;;;;4995552;28;20038;-70
2021/04/26 08:59:54;;;;;;;7.57;4.20;;;15.80;72.40;;;;;;4978165;28;20037;-72
2021/04/26 09:02:20;;;;;;;9.60;4.00;;;16.20;69.70;;;;;;4995261;28;20440;-71
2021/04/26 09:04:52;;;;;;;6.20;4.07;;;16.30;69.00;;;;;;4976928;28;20104;-70
2021/04/26 09:07:18;;;;;;;;;;;16.10;68.00;;;;;;4996096;28;20114;-71
2021/04/26 09:09:48;;;;;;;8.60;4.03;;;15.90;69.50;;;;;;4978459;28;19941;-71
2021/04/26 09:12:30;;;;;;;9.38;4.50;;;16.10;68.30;;;;;;4995471;28;20061;-72
2021/04/26 09:14:58;;;;;;;9.02;4.10;;;16.20;68.50;;;;;;4981659;28;20385;-71
2021/04/26 09:17:26;;;;;;;8.45;4.25;;;16.50;69.60;;;;;;4958854;28;20045;-72
2021/04/26 09:19:54;;;;;;;9.13;4.00;;;17.20;65.40;;;;;;4975683;28;20038;-70
2021/04/26 09:22:38;;;;;;;7.38;3.95;;;17.00;65.70;;;;;;4974705;28;20038;-71
2021/04/26 09:25:32;;;;;;;5.45;4.05;;;17.60;66.00;;;;;;4975093;28;20031;-71
2021/04/26 09:28:08;;;;;;;6.40;3.95;;;18.30;63.30;;;;;;4974619;28;20489;-69
2021/04/26 09:30:41;;;;;;;11.63;4.13;;;18.60;63.70;;;;;;4990786;28;20030;-70
2021/04/26 09:33:40;;;;;;;7.50;3.80;;;19.30;58.90;;;;;;4975194;28;20116;-69
2021/04/26 09:36:14;;;;;;;7.63;3.97;;;19.60;57.70;;;;;;4992371;28;20022;-72
2021/04/26 09:38:44;;;;;;;7.10;3.92;;;18.90;59.00;;;;;;4993797;28;20448;-70
2021/04/26 09:41:15;;;;;;;7.55;3.80;;;19.40;59.10;;;;;;4992949;28;20026;-70
2021/04/26 09:43:50;;;;;;;7.30;4.15;;;19.70;58.30;;;;;;4993218;28;20053;-70
2021/04/26 09:46:19;;;;;;;10.23;4.22;;;20.40;55.30;;;;;;4993340;28;20023;-71
2021/04/26 09:48:45;;;;;;;6.22;3.72;;;21.00;54.30;;;;;;4993809;28;20157;-70
2021/04/26 09:51:21;;;;;;;8.50;4.28;;;20.80;53.60;;;;;;4993196;28;20483;-72
2021/04/26 09:53:49;;;;;;;9.65;3.90;;;20.50;52.00;;;;;;4992806;28;20019;-70
2021/04/26 09:58:55;;;;;;;6.70;3.50;;;19.40;55.60;;;;;;4994665;28;20053;-72
2021/04/26 10:01:21;;;;;;;9.27;3.90;;;19.30;54.60;;;;;;4994648;28;20392;-73
2021/04/26 10:03:49;;;;;;;6.10;2.80;;;19.70;53.10;;;;;;5012961;28;20088;-74
2021/04/26 10:06:16;;;;;;;3.30;2.60;;;20.70;50.90;;;;;;5011555;28;20468;-74
2021/04/26 10:08:50;;;;;;;3.25;2.60;;;20.60;47.10;;;;;;5000687;28;20031;-76
2021/04/26 10:11:17;;;;;;;4.55;2.83;;;20.90;48.50;;;;;;4997257;28;20424;-76
2021/04/26 10:13:47;;;;;;;4.32;2.63;;;20.60;49.50;;;;;;4996414;28;20027;-76
2021/04/26 10:16:32;;;;;;;4.65;2.63;;;20.10;46.60;;;;;;5004781;28;20014;-73
2021/04/26 10:18:59;;;;;;;5.78;3.05;;;19.90;47.00;;;;;;5014406;28;20026;-74
2021/04/26 10:21:25;;;;;;;3.58;2.65;;;20.10;45.80;;;;;;5012346;28;20025;-75
2021/04/26 10:23:54;;;;;;;4.55;2.63;;;20.60;47.10;;;;;;5020924;28;20034;-74
2021/04/26 10:26:39;;;;;;;8.40;3.03;;;21.80;47.60;;;;;;5019240;28;20030;-75
2021/04/26 10:29:14;;;;;;;7.28;2.75;;;23.50;43.20;;;;;;5022972;28;20033;-76
2021/04/26 10:32:07;;;;;;;5.53;3.08;;;22.50;42.70;;;;;;5020121;28;20033;-76
2021/04/26 10:34:42;;;;;;;5.10;3.35;;;20.10;44.40;;;;;;4987780;28;20034;-76
2021/04/26 10:37:17;;;;;;;3.80;3.42;;;19.60;48.40;;;;;;5017350;28;20018;-75
2021/04/26 10:39:58;;;;;;;4.10;3.20;;;21.10;47.70;;;;;;5017628;28;20022;-74
2021/04/26 10:42:36;;;;;;;5.25;3.40;;;21.70;46.20;;;;;;5018587;28;20098;-74
2021/04/26 10:45:04;;;;;;;5.30;3.60;;;21.30;46.10;;;;;;5015295;28;20030;-73
2021/04/26 10:47:36;;;;;;;5.15;3.65;;;21.40;45.90;;;;;;5016771;28;20029;-74
2021/04/26 10:50:01;;;;;;;5.90;3.20;;;20.30;45.50;;;;;;5018261;28;20024;-74
2021/04/26 10:52:27;;;;;;;5.53;3.53;;;19.50;50.70;;;;;;5016466;28;20065;-75
2021/04/26 10:54:57;;;;;;;8.77;3.80;;;20.60;47.60;;;;;;5016003;28;20026;-75
2021/04/26 10:57:44;;;;;;;4.75;3.50;;;22.00;47.00;;;;;;5015046;28;20032;-75
2021/04/26 11:00:36;;;;;;;5.00;3.70;;;23.40;43.80;;;;;;5014270;28;20029;-76
2021/04/26 11:03:11;;;;;;;6.30;3.35;;;23.60;42.70;;;;;;5007497;28;20068;-75
2021/04/26 11:05:45;;;;;;;7.22;4.03;;;24.30;43.90;;;;;;5017122;28;20022;-74
2021/04/26 11:08:30;;;;;;;6.00;3.90;;;23.90;41.10;;;;;;5013025;28;20041;-75
2021/04/26 11:11:01;;;;;;;4.85;3.80;;;23.20;42.20;;;;;;5005093;28;20511;-75
2021/04/26 11:13:33;;;;;;;4.80;3.80;;;22.30;43.00;;;;;;5003051;28;20109;-74
2021/04/26 11:16:13;;;;;;;3.67;3.38;;;21.90;43.60;;;;;;5003263;28;20052;-73
2021/04/26 11:18:52;;;;;;;6.95;3.45;;;22.40;43.50;;;;;;5004612;28;20064;-75
2021/04/26 11:21:47;;;;;;;7.10;3.83;;;22.10;44.30;;;;;;5003139;28;20054;-72
2021/04/26 11:24:35;;;;;;;4.85;3.67;;;23.30;43.10;;;;;;4999815;28;20413;-74
2021/04/26 11:27:14;;;;;;;7.00;3.40;;;22.40;43.00;;;;;;4993021;28;20027;-74
2021/04/26 11:29:48;;;;;;;7.53;3.70;;;21.90;44.90;;;;;;4994488;28;20030;-75
2021/04/26 11:32:15;;;;;;;6.57;3.58;;;21.90;43.50;;;;;;5000311;28;20045;-76
2021/04/26 11:34:47;;;;;;;6.85;4.28;;;21.70;44.20;;;;;;5012480;28;20052;-75
2021/04/26 11:37:14;;;;;;;6.40;4.40;;;21.60;44.30;;;;;;5013632;28;20112;-74
2021/04/26 11:39:43;;;;;;;6.88;3.72;;;21.10;43.10;;;;;;5013620;28;20514;-74
2021/04/26 11:42:11;;;;;;;8.40;3.63;;;21.30;45.90;;;;;;5012571;28;20472;-75
2021/04/26 11:44:39;;;;;;;4.82;3.63;;;21.30;43.90;;;;;;5012068;28;20053;-76
2021/04/26 11:47:09;;;;;;;11.93;3.88;;;21.60;44.20;;;;;;5015467;28;20117;-72
2021/04/26 11:49:43;;;;;;;6.75;3.83;;;22.30;43.60;;;;;;5008144;28;20050;-73
2021/04/26 11:52:17;;;;;;;5.85;3.75;;;23.10;42.10;;;;;;5012436;28;20018;-71
2021/04/26 11:54:44;;;;;;;5.70;3.58;;;23.00;41.50;;;;;;5011643;28;20033;-72
2021/04/26 11:57:15;;;;;;;9.15;4.07;;;22.80;42.40;;;;;;4992202;28;20066;-73
2021/04/26 11:59:48;;;;;;;6.03;3.50;;;21.80;42.20;;;;;;4992090;28;20030;-73
2021/04/26 12:02:27;;;;;;;5.57;3.83;;;21.80;43.30;;;;;;4999214;28;20029;-71
2021/04/26 12:04:53;;;;;;;6.38;3.85;;;22.20;43.80;;;;;;5007995;28;20546;-73
2021/04/26 12:07:19;;;;;;;7.60;4.22;;;22.30;43.10;;;;;;5010577;28;20022;-73
2021/04/26 12:09:52;;;;;;;4.93;3.20;;;22.20;42.20;;;;;;5011128;28;20365;-71
2021/04/26 12:12:26;;;;;;;14.02;3.60;;;21.90;43.30;;;;;;5012153;28;20108;-72
2021/04/26 12:15:15;;;;;;;4.68;3.67;;;21.30;44.70;;;;;;5012097;28;20504;-71
2021/04/26 12:17:42;;;;;;;6.10;3.42;;;21.60;43.00;;;;;;5013971;28;20022;-70
2021/04/26 12:20:17;;;;;;;5.70;3.58;;;21.50;43.90;;;;;;5012889;28;20030;-71
2021/04/26 12:22:48;;;;;;;4.70;3.63;;;21.50;43.60;;;;;;5017199;28;20349;-71
2021/04/26 12:25:16;;;;;;;5.55;3.80;;;21.70;42.00;;;;;;5012619;28;20036;-72
2021/04/26 12:27:42;;;;;;;5.10;3.60;;;21.50;45.80;;;;;;5000426;28;20034;-71
2021/04/26 12:30:20;;;;;;;5.93;3.88;;;22.40;41.20;;;;;;4996708;28;20476;-72
2021/04/26 12:32:47;;;;;;;7.25;3.55;;;22.80;41.40;;;;;;5006730;28;20018;-72
2021/04/26 12:35:18;;;;;;;6.55;3.35;;;23.10;41.00;;;;;;5008173;28;20056;-72
2021/04/26 12:37:47;;;;;;;5.35;3.50;;;23.00;39.40;;;;;;5003611;28;20475;-71
2021/04/26 12:40:24;;;;;;;4.47;3.60;;;22.60;40.50;;;;;;5008128;28;20030;-73
2021/04/26 12:43:02;;;;;;;6.40;3.80;;;22.60;41.00;;;;;;4991734;28;20022;-73
2021/04/26 12:45:31;;;;;;;4.95;3.65;;;21.90;40.30;;;;;;4996617;28;20022;-73
2021/04/26 12:47:59;;;;;;;7.75;3.60;;;21.30;42.60;;;;;;4997409;28;20037;-73
2021/04/26 12:50:32;;;;;;;4.72;3.22;;;22.30;42.30;;;;;;4997080;28;20030;-73
2021/04/26 12:53:12;;;;;;;6.63;3.85;;;22.30;40.00;;;;;;4995426;28;20025;-72
2021/04/26 12:55:46;;;;;;;5.40;3.20;;;22.70;39.60;;;;;;4995301;28;20022;-71
2021/04/26 12:58:14;;;;;;;4.85;3.75;;;23.10;41.10;;;;;;5009940;28;20121;-72
2021/04/26 13:00:42;;;;;;;5.47;3.58;;;22.70;39.00;;;;;;5003694;28;20084;-72